Aktualne dane pomiarowe

Uwaga, wersja testowa! Automatyczne pobieranie danych za pomocą narzędzi lub skryptów to umożliwiających jest zabronione.

Dane meteo z obszaru Polski uzyskane na podstawie depesz SYNOP pobieranych co godzinę z NWS. Najedź myszką na symbol przedstawiony w tabeli, aby uzyskać informacje co do jego znaczenia. Prosimy pamiętać, że to testowa wersja strony, która jeszcze nie jest ukończona. Stworzono również jest krótki FAQ dotyczący korzystania z tej podstrony Anomalie temperatury w chwili obecnej odniesione są do okresu referencyjnego 1951-2016. Okres ten będzie później zmieniony na 1981-2010. Kliknij ikonę aby pobrać plik CSV. Kliknij ikonę aby wygenerować mapę synoptyczną dla danego terminu.

Wybierz Datę:    

        

Zamość (12595)

Dane terminowe dla wybranej stacji. Kliknij datę, aby otrzymać dane z tego terminu dla wszystkich stacji.

TemperaturaZachmurzenieWiatrCiśnienieOpadyPogoda
 Data t td wb tx tn tg rh  Nt Nl Cl Cm Ch ws wd g1 g2 wx mslp ppp ch 24h 12h t ww ww w1 w2  
2019-07-20 23:00:00 15.5 14.7 14.9--- 955.0--1wx--11018.3 991.8 0.2---wx-----
2019-07-20 22:00:00 16.2 15.1 15.4--- 9313.0--1wx--11018.3 991.9 0.6---------
2019-07-20 21:00:00 17.5 15.8 16.3--- 9020.0--1wx---1018.0 991.7 0.8---------
2019-07-20 20:00:00 17.3 15.8 16.2--- 9120.0--3wx--31017.9 991.6 0.9---------
2019-07-20 19:00:00 19.2 14.9 16.3--- 7620.0--4wx--41017.4 991.3 0.7---wx-----
2019-07-20 18:00:00 22.5 15.3 17.8 27.6 16.6- 6420.0wxwxwx2wx--21016.7 990.9 0.4- 0.212wx---
2019-07-20 17:00:00 24.2 14.6 18.1--- 5520.0wxwxwxwx3wx--31016.3 990.7 0.0---------
2019-07-20 16:00:00 25.9 15.0 18.9--- 5120.0wxwxwxwx1wx--11016.1 990.6 -0.3---------
2019-07-20 15:00:00 26.5 13.6 18.5--- 4520.0wxwxwxwx1wx---1015.9 990.5 -1.0---------
2019-07-20 14:00:00 26.6 13.3 18.4--- 4420.0wxwxwxwxwx2wx--21016.1 990.7 -1.1---------
2019-07-20 13:00:00 26.4 14.2 18.7--- 4720.0wxwxwxwxwx2wx--21016.4 990.9 -1.1---------
2019-07-20 12:00:00 24.5 14.0 17.9--- 5220.0wxwxwxwxwx2wx--21017.1 991.5 -0.6- 0.26wx-w1--
2019-07-20 11:00:00 24.6 13.8 17.8--- 5120.0wxwxwxwxwx2wx--21017.4 991.8 -0.2---------
2019-07-20 10:00:00 22.5 14.9 17.6--- 6220.0wxwxwxwx2wx--21017.8 992.0 0.3---------
2019-07-20 09:00:00 21.6 15.9 17.8--- 7020.0wxwxwxwx1wx--11018.0 992.1 0.5---wx-w1--
2019-07-20 08:00:00 19.6 15.0 16.5--- 7520.0wxwxwxwx2wx--21018.1 992.0 0.9---wx-w1--
2019-07-20 07:00:00 18.0 16.2 16.7--- 8920.0wx-wx2wx--21017.9 991.7 0.8---wx---
2019-07-20 06:00:00 16.7 14.7 15.3 21.7 14.5 12 8816.0wx-wx2wx--21017.9 991.6 1.2 0.1 0.112wx-----
2019-07-20 05:00:00 16.5 14.1 14.8--- 8620.0--4wx---1017.4 991.1 0.8---wx-----
2019-07-20 04:00:00 16.4 13.3 14.3--- 8220.0--3wx--31017.2 990.9 0.8---wx-----
2019-07-20 03:00:00 14.9 12.8 13.4--- 8720.0--2wx--21016.9 990.4 0.4---wx-----
2019-07-20 02:00:00 14.6 11.6 12.6--- 8220.0--2wx--21016.8 990.3 0.4---------
2019-07-20 01:00:00 16.7 12.2 13.8--- 7520.0--2wx--21016.4 990.1 0.4---------
2019-07-20 00:00:00 16.7 11.6 13.4--- 7220.0--1wx--11016.3 990.0 0.6- 0.06------
2019-07-19 23:00:00 16.7 11.8 13.5--- 7320.0--3wx---1016.2 989.9 0.9---------
2019-07-19 22:00:00 16.1 11.9 13.3--- 7613.0--3wx--31016.0 989.7 0.9---------
2019-07-19 21:00:00 16.4 11.8 13.4--- 7420.0--1wx--11015.7 989.4 0.9---------
2019-07-19 20:00:00 16.1 11.5 13.1--- 7420.0--2wx--21015.3 989.0 0.6---------
2019-07-19 19:00:00 18.0 11.5 13.9--- 6620.0--2wx--21014.9 988.8 0.7---------
2019-07-19 18:00:00 21.4 10.5 14.9 27.3 18.6- 5020.0wxwxwxwxwx2wx--21014.3 988.5 0.4- 0.012------
2019-07-19 17:00:00 24.7 9.4 15.8--- 3820.0wxwxwxwx2wx--21013.9 988.4 0.0---------
2019-07-19 16:00:00 26.6 8.1 16.0--- 3120.0wxwxwxwx3wx--31013.5 988.1 -0.6---------
2019-07-19 15:00:00 26.8 7.8 16.0--- 3020.0wxwxwxwx4wx--41013.4 988.1 -0.8---------
2019-07-19 14:00:00 25.4 8.0 15.5--- 3320.0wxwxwxwx2wx--21013.9 988.4 -0.9---------
2019-07-19 13:00:00 27.1 7.5 16.0--- 2920.0wxwxwx4wx--41014.0 988.7 -0.6---------
2019-07-19 12:00:00 26.4 7.9 15.9--- 3120.0wxwxwx2wx7821014.3 988.9 -0.5- 0.06------
2019-07-19 11:00:00 25.5 8.0 15.5--- 3320.0wxwxwx5wx-851014.8 989.3 -0.3---------
2019-07-19 10:00:00 24.2 8.6 15.2--- 3720.0wxwxwx4wx--41014.9 989.3 -0.4---------
2019-07-19 09:00:00 24.0 8.0 14.9--- 3620.0wxwxwx2wx--21015.0 989.4 -0.3---------
2019-07-19 08:00:00 23.4 9.4 15.2--- 4120.0wxwxwxwx3wx--31015.3 989.6 0.1---------
2019-07-19 07:00:00 21.8 10.9 15.2--- 5020.0wxwxwxwx2wx--21015.5 989.7 0.2---------
2019-07-19 06:00:00 18.6 12.3 14.6 18.8 7.9 6 6720.0wxwxwxwx1wx--11015.8 989.7 0.3- 0.012wx-----
2019-07-19 05:00:00 14.9 11.7 12.8--- 8120.0--1wx--11015.9 989.5 0.3---------
2019-07-19 04:00:00 10.8 10.0 10.2--- 9520.0--1wx--11016.3 989.5 0.4---------
2019-07-19 03:00:00 8.5 8.1 8.2--- 9720.0--2wx--21016.5 989.4 0.5---------
2019-07-19 02:00:00 8.3 7.7 7.8--- 9620.0--1wx--11016.3 989.2 0.3---------
2019-07-19 01:00:00 8.5 7.7 7.9--- 9520.0--1wx--11016.1 989.1 0.4---------
2019-07-19 00:00:00 9.9 9.1 9.3--- 9520.0--2wx--21015.8 988.9 0.4- 0.06------
1.6 ms

 

Print Friendly, PDF & Email